Time;durP1;ratioP1;P1;durP2;ratioP2;P2;SDS_P1;SDS_P2;PMS_P1;PMS_P2;Temp;Humidity;BMP_temperature;BMP_pressure;BME280_temperature;BME280_humidity;BME280_pressure;Samples;Min_cycle;Max_cycle;Signal;HPM_P1;HPM_P2
2023/01/18 00:01:38;;;;;;;;;;;;;;;21.15;28.91;96761.25;5072895;28;1493;-78
2023/01/18 00:04:03;;;;;;;;;;;;;;;20.85;29.46;96759.34;5074324;28;935;-79
2023/01/18 00:06:29;;;;;;;;;;;;;;;21.22;29.27;96765.78;5075762;28;897;-79
2023/01/18 00:08:54;;;;;;;;;;;;;;;21.14;29.07;96756.84;5031856;28;1216005;-79
2023/01/18 00:11:19;;;;;;;;;;;;;;;21.66;28.44;96756.94;5076071;28;1906;-79
2023/01/18 00:13:45;;;;;;;;;;;;;;;21.24;28.74;96746.28;5074717;28;967;-78
2023/01/18 00:16:12;;;;;;;;;;;;;;;21.07;29.11;96746.63;5074315;28;1485;-78
2023/01/18 00:18:37;;;;;;;;;;;;;;;20.79;29.57;96747.88;5074616;28;942;-79
2023/01/18 00:21:03;;;;;;;;;;;;;;;21.17;29.49;96744.56;5074135;28;1022;-79
2023/01/18 00:23:29;;;;;;;;;;;;;;;21.27;28.90;96746.13;5074564;28;954;-78
2023/01/18 00:26:04;;;;;;;;;;;;;;;21.49;28.56;96733.88;5074773;28;876;-79
2023/01/18 00:28:30;;;;;;;;;;;;;;;21.37;28.69;96751.81;5075674;28;967;-78
2023/01/18 00:30:55;;;;;;;;;;;;;;;21.10;29.09;96744.91;5073931;28;1971;-78
2023/01/18 00:33:21;;;;;;;;;;;;;;;20.91;29.53;96746.16;5074256;28;914;-78
2023/01/18 00:35:56;;;;;;;;;;;;;;;21.22;29.11;96738.28;5075890;28;1002;-79
2023/01/18 00:38:21;;;;;;;;;;;;;;;21.22;28.89;96743.94;5075454;28;899;-79
2023/01/18 00:40:46;;;;;;;;;;;;;;;21.35;28.69;96734.50;5075732;28;914;-79
2023/01/18 00:45:56;;;;;;;;;;;;;;;20.80;29.39;96719.13;5075154;28;1421;-78
2023/01/18 00:48:21;;;;;;;;;;;;;;;20.97;29.09;96732.94;5090398;28;912;-78
2023/01/18 00:50:47;;;;;;;;;;;;;;;21.21;29.41;96725.41;5074670;28;995;-79
2023/01/18 00:53:12;;;;;;;;;;;;;;;21.49;28.40;96731.81;5075708;28;1972;-79
2023/01/18 00:55:38;;;;;;;;;;;;;;;21.46;28.64;96717.84;5076303;28;902;-78
2023/01/18 00:58:03;;;;;;;;;;;;;;;21.26;28.78;96718.31;5075388;28;935;-79
2023/01/18 01:00:28;;;;;;;;;;;;;;;20.91;29.48;96700.91;5088582;28;1537;-78
2023/01/18 01:02:54;;;;;;;;;;;;;;;20.76;29.38;96709.22;5074810;28;1796;-79
2023/01/18 01:08:05;;;;;;;;;;;;;;;21.19;29.28;96705.31;5075274;28;1120;-79
2023/01/18 01:10:34;;;;;;;;;;;;;;;21.31;29.10;96687.38;5075704;28;995;-79
2023/01/18 01:26:39;;;;;;;;;;;;;;;21.05;29.50;96751.19;5075436;28;834;-79
2023/01/18 01:29:05;;;;;;;;;;;;;;;20.99;29.24;96765.16;5075494;28;960;-78
2023/01/18 01:31:30;;;;;;;;;;;;;;;20.99;29.16;96781.34;5075526;28;1906;-78
2023/01/18 01:33:55;;;;;;;;;;;;;;;21.07;29.03;96771.28;5077393;28;1491;-80
2023/01/18 01:36:24;;;;;;;;;;;;;;;21.61;28.42;96747.06;5078599;28;967;-78
2023/01/18 01:38:50;;;;;;;;;;;;;;;21.38;28.55;96734.38;5076937;28;1459;-78
2023/01/18 01:41:19;;;;;;;;;;;;;;;21.33;29.14;96727.28;5078958;28;924;-78
2023/01/18 01:43:45;;;;;;;;;;;;;;;21.06;29.12;96719.59;5077135;28;966;-78
2023/01/18 01:46:29;;;;;;;;;;;;;;;20.74;29.80;96726.66;5078975;28;849;-78
2023/01/18 01:48:58;;;;;;;;;;;;;;;21.02;29.53;96721.00;5078338;28;1003;-78
2023/01/18 01:51:23;;;;;;;;;;;;;;;21.24;29.11;96723.66;5076377;28;1980;-79
2023/01/18 01:53:49;;;;;;;;;;;;;;;21.32;29.07;96720.06;5074353;28;890;-79
2023/01/18 01:56:14;;;;;;;;;;;;;;;21.44;28.69;96709.03;5057448;28;910;-79
2023/01/18 01:58:39;;;;;;;;;;;;;;;21.21;29.08;96713.31;5039652;28;1149;-79
2023/01/18 02:01:07;;;;;;;;;;;;;;;21.03;29.15;96708.44;5056948;28;972;-78
2023/01/18 02:03:33;;;;;;;;;;;;;;;20.88;29.61;96696.19;5040042;28;1055;-78
2023/01/18 02:06:00;;;;;;;;;;;;;;;21.02;29.72;96701.22;5056878;28;863;-79
2023/01/18 02:08:26;;;;;;;;;;;;;;;21.35;29.37;96694.91;5072738;28;1519;-78
2023/01/18 02:10:51;;;;;;;;;;;;;;;21.61;28.57;96695.34;5075159;28;1508;-77
2023/01/18 02:13:17;;;;;;;;;;;;;;;21.26;29.04;96693.66;5078123;28;1913;-79
2023/01/18 02:15:48;;;;;;;;;;;;;;;21.26;29.04;96704.97;5060307;28;936;-79
2023/01/18 02:18:17;;;;;;;;;;;;;;;21.08;29.46;96702.16;5077888;28;886;-78
2023/01/18 02:20:42;;;;;;;;;;;;;;;21.12;29.45;96704.81;5076820;28;931;-78
2023/01/18 02:23:07;;;;;;;;;;;;;;;21.49;29.22;96711.22;5076847;28;939;-78
2023/01/18 02:25:52;;;;;;;;;;;;;;;21.43;29.03;96708.25;5075892;28;1576;-79
2023/01/18 02:28:21;;;;;;;;;;;;;;;21.16;29.41;96716.78;5077403;28;924;-78
2023/01/18 02:30:48;;;;;;;;;;;;;;;21.04;29.46;96716.47;5076805;28;902;-78
2023/01/18 02:33:13;;;;;;;;;;;;;;;20.89;29.68;96714.75;5076532;28;1905;-78
2023/01/18 02:35:49;;;;;;;;;;;;;;;21.40;29.26;96709.22;5078234;28;972;-78
2023/01/18 02:38:19;;;;;;;;;;;;;;;21.24;29.22;96713.16;5076692;28;996;-78
2023/01/18 02:40:53;;;;;;;;;;;;;;;21.61;28.61;96715.94;5073796;28;1521;-79
2023/01/18 02:48:47;;;;;;;;;;;;;;;21.06;29.24;96730.13;5076364;28;1052;-78
2023/01/18 02:51:13;;;;;;;;;;;;;;;21.47;28.88;96730.75;5076108;28;1909;-78
2023/01/18 02:53:42;;;;;;;;;;;;;;;21.72;28.79;96733.19;5077275;28;928;-79
2023/01/18 02:56:10;;;;;;;;;;;;;;;21.67;28.59;96738.72;5075267;28;1671;-78
2023/01/18 02:58:56;;;;;;;;;;;;;;;21.18;29.30;96743.31;5059270;28;910;-79
2023/01/18 03:01:26;;;;;;;;;;;;;;;21.31;28.97;96746.81;5059739;28;1733;-79
2023/01/18 03:03:52;;;;;;;;;;;;;;;21.02;29.33;96737.97;5058975;28;932;-78
2023/01/18 03:06:18;;;;;;;;;;;;;;;21.57;28.55;96740.78;5076092;28;1020;-78
2023/01/18 03:09:01;;;;;;;;;;;;;;;21.48;28.96;96737.97;5075530;28;1020;-79
2023/01/18 03:11:35;;;;;;;;;;;;;;;21.51;28.64;96714.38;5041706;28;1910;-79
2023/01/18 03:14:21;;;;;;;;;;;;;;;21.01;29.23;96713.78;5076032;28;935;-79
2023/01/18 03:16:58;;;;;;;;;;;;;;;21.04;29.26;96727.78;5076667;28;913;-78
2023/01/18 03:22:12;;;;;;;;;;;;;;;21.23;29.07;96711.56;5075803;28;939;-79
2023/01/18 03:24:40;;;;;;;;;;;;;;;21.21;29.14;96721.78;5057990;28;2432;-79
2023/01/18 03:35:17;;;;;;;;;;;;;;;20.83;29.51;96740.03;5075627;28;953;-79
2023/01/18 03:37:43;;;;;;;;;;;;;;;21.41;28.91;96746.78;5053788;28;959;-78
2023/01/18 03:40:08;;;;;;;;;;;;;;;21.48;28.68;96738.75;5036733;28;1493;-79
2023/01/18 03:42:39;;;;;;;;;;;;;;;21.48;28.56;96737.97;5037486;28;1232;-78
2023/01/18 03:45:09;;;;;;;;;;;;;;;21.59;28.54;96733.38;5054002;28;1051;-78
2023/01/18 03:47:35;;;;;;;;;;;;;;;21.16;29.21;96734.53;5020443;28;1332;-79
2023/01/18 03:50:00;;;;;;;;;;;;;;;21.11;29.18;96740.03;5036976;28;1708;-78
2023/01/18 03:52:30;;;;;;;;;;;;;;;21.16;29.13;96743.00;5036954;28;1899;-78
2023/01/18 03:55:04;;;;;;;;;;;;;;;21.51;28.73;96748.34;5020635;28;944;-78
2023/01/18 03:58:04;;;;;;;;;;;;;;;21.37;29.02;96755.44;5033688;28;1017;-78
2023/01/18 04:00:30;;;;;;;;;;;;;;;21.44;28.66;96760.75;4993618;28;1477;-78
2023/01/18 04:02:55;;;;;;;;;;;;;;;21.06;29.12;96758.41;4978348;28;985;-79
2023/01/18 04:05:21;;;;;;;;;;;;;;;21.07;29.49;96755.09;4978563;28;976;-78
2023/01/18 04:07:46;;;;;;;;;;;;;;;20.87;29.52;96757.59;4993821;28;1049;-78
2023/01/18 04:10:12;;;;;;;;;;;;;;;21.04;29.67;96749.63;4978332;28;999;-78
2023/01/18 04:12:37;;;;;;;;;;;;;;;21.71;28.29;96771.25;4994433;28;1976;-78
2023/01/18 04:15:03;;;;;;;;;;;;;;;21.75;28.51;96757.72;4993042;28;1582;-79
2023/01/18 04:17:28;;;;;;;;;;;;;;;21.22;28.78;96757.31;4955315;29;1028;-79
2023/01/18 04:19:54;;;;;;;;;;;;;;;21.19;29.00;96767.53;4955422;29;958;-79
2023/01/18 04:22:19;;;;;;;;;;;;;;;21.16;29.09;96762.03;4955329;29;1038;-79
2023/01/18 04:24:45;;;;;;;;;;;;;;;21.32;28.91;96765.34;4955418;29;990;-79
2023/01/18 04:27:10;;;;;;;;;;;;;;;21.34;28.91;96756.38;4955333;29;980;-78
2023/01/18 04:29:36;;;;;;;;;;;;;;;21.27;28.86;96757.47;4992048;28;1604;-79
2023/01/18 04:32:01;;;;;;;;;;;;;;;21.06;29.29;96758.41;4994225;28;1906;-78
2023/01/18 04:34:27;;;;;;;;;;;;;;;21.16;28.94;96762.81;5013605;28;1013;-78
2023/01/18 04:36:52;;;;;;;;;;;;;;;20.81;29.59;96765.16;5033811;28;957;-78
2023/01/18 04:39:18;;;;;;;;;;;;;;;21.22;29.21;96765.78;5000191;28;967;-78
2023/01/18 04:41:43;;;;;;;;;;;;;;;21.53;28.77;96763.59;5033502;28;1042;-79
2023/01/18 04:44:09;;;;;;;;;;;;;;;21.51;28.60;96754.00;5034904;28;1659;-78
2023/01/18 04:46:35;;;;;;;;;;;;;;;21.10;28.98;96753.38;5053332;28;964;-79
2023/01/18 04:49:01;;;;;;;;;;;;;;;21.04;29.29;96744.75;5020279;28;1034;-79
2023/01/18 04:51:26;;;;;;;;;;;;;;;20.67;29.95;96732.63;5053671;28;1973;-79
2023/01/18 04:53:52;;;;;;;;;;;;;;;21.19;29.08;96756.22;5054998;28;908;-79
2023/01/18 04:56:17;;;;;;;;;;;;;;;21.21;29.00;96739.53;5075836;28;943;-78
2023/01/18 04:58:43;;;;;;;;;;;;;;;21.67;28.18;96759.31;5075063;28;1803;-79
2023/01/18 05:01:10;;;;;;;;;;;;;;;21.29;28.88;96752.09;5075750;28;906;-79
2023/01/18 05:03:37;;;;;;;;;;;;;;;21.07;29.04;96765.63;5075520;28;885;-79
2023/01/18 05:06:06;;;;;;;;;;;;;;;21.28;29.25;96753.34;5076395;28;939;-78
2023/01/18 05:08:31;;;;;;;;;;;;;;;21.66;28.55;96749.25;5078451;28;1541;-79
2023/01/18 05:11:03;;;;;;;;;;;;;;;21.81;28.00;96749.34;5081559;28;1125;-82
2023/01/18 05:13:29;;;;;;;;;;;;;;;21.14;29.14;96748.38;5058880;28;1968;-81
2023/01/18 05:15:54;;;;;;;;;;;;;;;21.10;29.02;96742.06;5060514;28;915;-80
2023/01/18 05:18:20;;;;;;;;;;;;;;;20.77;29.71;96748.31;5060171;28;844;-81
2023/01/18 05:20:45;;;;;;;;;;;;;;;21.28;29.05;96756.19;5060973;28;771;-82
2023/01/18 05:23:13;;;;;;;;;;;;;;;21.24;28.92;96758.41;5060014;28;820;-81
2023/01/18 05:25:38;;;;;;;;;;;;;;;21.58;28.24;96743.13;5059857;28;825;-81
2023/01/18 05:28:04;;;;;;;;;;;;;;;21.16;28.83;96754.31;5059467;28;782;-82
2023/01/18 05:30:29;;;;;;;;;;;;;;;21.18;29.00;96754.63;5060561;28;902;-82
2023/01/18 05:32:55;;;;;;;;;;;;;;;21.03;29.00;96756.50;5060024;28;1914;-81
2023/01/18 05:35:20;;;;;;;;;;;;;;;21.57;28.60;96757.75;5059988;28;894;-81
2023/01/18 05:37:46;;;;;;;;;;;;;;;21.32;28.99;96770.22;5059975;28;894;-82
2023/01/18 05:40:11;;;;;;;;;;;;;;;21.77;28.31;96774.25;5060471;28;839;-81
2023/01/18 05:42:37;;;;;;;;;;;;;;;21.33;28.80;96766.91;5060706;28;936;-81
2023/01/18 05:45:02;;;;;;;;;;;;;;;21.15;28.80;96755.59;5073742;28;935;-79
2023/01/18 05:47:28;;;;;;;;;;;;;;;21.02;28.83;96769.09;5079597;28;848;-80
2023/01/18 05:49:56;;;;;;;;;;;;;;;21.41;28.58;96772.25;5079607;28;981;-79
2023/01/18 05:52:22;;;;;;;;;;;;;;;21.42;28.43;96782.31;5078798;28;1973;-78
2023/01/18 05:54:47;;;;;;;;;;;;;;;21.46;28.45;96777.28;5078609;28;1155;-78
2023/01/18 05:57:13;;;;;;;;;;;;;;;21.19;28.96;96778.84;5078666;28;961;-79
2023/01/18 05:59:38;;;;;;;;;;;;;;;21.00;29.13;96777.28;5078970;28;978;-79
2023/01/18 06:02:04;;;;;;;;;;;;;;;21.13;29.11;96777.09;5079435;28;930;-78
2023/01/18 06:04:30;;;;;;;;;;;;;;;21.51;28.28;96779.47;5078288;28;876;-78
2023/01/18 06:06:56;;;;;;;;;;;;;;;21.43;28.36;96792.38;5078332;28;953;-78
2023/01/18 06:09:21;;;;;;;;;;;;;;;21.16;28.94;96771.28;5035636;28;1171;-79
2023/01/18 06:11:47;;;;;;;;;;;;;;;21.12;28.65;96784.03;5036073;28;1907;-79
2023/01/18 06:14:12;;;;;;;;;;;;;;;21.13;28.65;96786.38;5035658;28;973;-79
2023/01/18 06:16:37;;;;;;;;;;;;;;;21.31;28.67;96786.41;4986583;28;1031;-79
2023/01/18 06:19:04;;;;;;;;;;;;;;;21.23;28.73;96768.13;5035744;28;931;-79
2023/01/18 06:21:30;;;;;;;;;;;;;;;21.31;28.81;96766.59;5036319;28;966;-79
2023/01/18 06:23:55;;;;;;;;;;;;;;;21.24;28.70;96769.72;5035688;28;1037;-79
2023/01/18 06:26:22;;;;;;;;;;;;;;;21.05;28.93;96787.97;5035995;28;906;-79
2023/01/18 06:28:48;;;;;;;;;;;;;;;21.13;28.95;96791.25;5035750;28;989;-79
2023/01/18 06:31:13;;;;;;;;;;;;;;;21.19;28.80;96789.34;5027264;28;1902;-77
2023/01/18 06:33:39;;;;;;;;;;;;;;;21.42;28.61;96796.47;5018140;28;1323;-79
2023/01/18 06:36:04;;;;;;;;;;;;;;;21.42;28.43;96799.28;5007063;28;1604;-78
2023/01/18 06:38:30;;;;;;;;;;;;;;;21.52;28.51;96800.84;5021476;28;1598;-78
2023/01/18 06:40:56;;;;;;;;;;;;;;;21.05;29.06;96804.91;5060222;28;1534;-79
2023/01/18 06:43:21;;;;;;;;;;;;;;;21.12;28.86;96813.09;5076053;28;1350;-79
2023/01/18 06:45:53;;;;;;;;;;;;;;;21.18;28.94;96816.84;5077352;28;1535;-79
2023/01/18 06:48:19;;;;;;;;;;;;;;;20.86;29.56;96825.94;5076422;28;1505;-78
2023/01/18 06:50:44;;;;;;;;;;;;;;;21.49;28.67;96835.75;5077228;28;1472;-70
2023/01/18 06:53:10;;;;;;;;;;;;;;;21.49;28.48;96841.41;5077730;28;1979;-79
2023/01/18 06:55:35;;;;;;;;;;;;;;;21.33;28.73;96831.97;5077791;28;1472;-79
2023/01/18 06:58:01;;;;;;;;;;;;;;;21.16;29.21;96830.69;5074747;28;1521;-79
2023/01/18 07:00:27;;;;;;;;;;;;;;;21.20;29.01;96842.66;5077914;28;1547;-79
2023/01/18 07:02:53;;;;;;;;;;;;;;;21.08;29.14;96840.72;5077869;28;1250;-78
2023/01/18 07:05:18;;;;;;;;;;;;;;;21.23;28.94;96841.69;5075973;28;1681;-79
2023/01/18 07:07:45;;;;;;;;;;;;;;;21.43;28.44;96843.31;5077086;28;1488;-79
2023/01/18 07:10:10;;;;;;;;;;;;;;;21.06;28.92;96846.09;5077061;28;1304;-79
2023/01/18 07:12:36;;;;;;;;;;;;;;;21.19;29.29;96848.75;5075921;28;1975;-68
2023/01/18 07:15:01;;;;;;;;;;;;;;;21.24;29.89;96837.63;5075879;28;1242;-79
2023/01/18 07:17:27;;;;;;;;;;;;;;;21.09;29.75;96842.31;5076629;28;1356;-79
2023/01/18 07:19:52;;;;;;;;;;;;;;;21.26;29.71;96837.94;5076426;28;1544;-78
2023/01/18 07:22:18;;;;;;;;;;;;;;;21.21;29.89;96837.78;5076224;28;1527;-78
2023/01/18 07:24:44;;;;;;;;;;;;;;;21.40;29.23;96844.25;5075662;28;1438;-78
2023/01/18 07:27:09;;;;;;;;;;;;;;;21.28;29.48;96845.94;5075461;28;1456;-80
2023/01/18 07:29:35;;;;;;;;;;;;;;;21.25;29.54;96833.53;5075133;28;1300;-78
2023/01/18 07:32:01;;;;;;;;;;;;;;;21.14;29.53;96827.56;5075110;28;1978;-77
2023/01/18 07:34:26;;;;;;;;;;;;;;;20.94;29.98;96830.06;5075924;28;1267;-77
2023/01/18 07:36:53;;;;;;;;;;;;;;;21.07;29.55;96813.72;5075088;28;1496;-77
2023/01/18 07:39:19;;;;;;;;;;;;;;;21.36;29.09;96821.78;5073906;28;1298;-77
2023/01/18 07:41:45;;;;;;;;;;;;;;;21.37;29.19;96839.53;5075647;28;1432;-77
2023/01/18 07:44:10;;;;;;;;;;;;;;;21.58;28.58;96852.75;5075565;28;1503;-77
2023/01/18 07:46:36;;;;;;;;;;;;;;;21.22;29.05;96862.75;5075623;28;1274;-77
2023/01/18 07:49:04;;;;;;;;;;;;;;;21.04;29.47;96871.22;5075132;28;1368;-76
2023/01/18 07:51:30;;;;;;;;;;;;;;;21.13;29.38;96882.53;5075388;28;1918;-78
2023/01/18 07:53:56;;;;;;;;;;;;;;;21.44;28.97;96878.84;5074646;28;1252;-78
2023/01/18 07:56:24;;;;;;;;;;;;;;;21.45;28.92;96874.75;5074981;28;1245;-79
2023/01/18 07:58:49;;;;;;;;;;;;;;;21.49;28.72;96867.66;5074450;28;1292;-79
2023/01/18 08:01:15;;;;;;;;;;;;;;;21.11;29.34;96873.75;5073725;28;1255;-79
2023/01/18 08:03:41;;;;;;;;;;;;;;;21.14;29.37;96872.81;5075350;28;1457;-78
2023/01/18 08:06:07;;;;;;;;;;;;;;;21.08;29.25;96864.13;5076012;28;1520;-78
2023/01/18 08:08:32;;;;;;;;;;;;;;;21.53;29.03;96864.69;5074225;28;1407;-78
2023/01/18 08:10:58;;;;;;;;;;;;;;;21.20;29.09;96864.50;5076163;28;1181;-80
2023/01/18 08:13:24;;;;;;;;;;;;;;;21.50;28.67;96859.97;5074175;28;1934;-76
2023/01/18 08:15:50;;;;;;;;;;;;;;;21.12;29.36;96857.56;5074797;28;1235;-77
2023/01/18 08:18:15;;;;;;;;;;;;;;;21.00;29.34;96862.09;5074849;28;1258;-77
2023/01/18 08:20:47;;;;;;;;;;;;;;;20.99;29.35;96857.72;5074522;28;1330;-78
2023/01/18 08:23:13;;;;;;;;;;;;;;;21.20;29.49;96864.50;5073782;28;1401;-78
2023/01/18 08:25:38;;;;;;;;;;;;;;;21.35;29.20;96864.66;5074660;28;1257;-78
2023/01/18 08:28:04;;;;;;;;;;;;;;;21.57;28.82;96865.31;5074987;28;1560;-78
2023/01/18 08:30:30;;;;;;;;;;;;;;;21.23;28.92;96867.16;5073546;28;1141;-78
2023/01/18 08:32:56;;;;;;;;;;;;;;;20.98;29.66;96853.28;5015647;28;1910;-79
2023/01/18 08:35:22;;;;;;;;;;;;;;;20.92;29.78;96850.28;5015791;28;1509;-78
2023/01/18 08:37:48;;;;;;;;;;;;;;;20.85;30.08;96849.81;4999535;28;1538;-77
2023/01/18 08:40:13;;;;;;;;;;;;;;;21.30;28.95;96852.75;5032585;28;1541;-78
2023/01/18 08:42:39;;;;;;;;;;;;;;;21.43;28.96;96863.13;5033691;28;1554;-77
2023/01/18 08:45:04;;;;;;;;;;;;;;;21.65;28.71;96855.22;5037220;28;1137;-77
2023/01/18 08:47:30;;;;;;;;;;;;;;;21.45;28.69;96886.06;5036058;28;1556;-78
2023/01/18 08:49:55;;;;;;;;;;;;;;;21.20;29.25;96887.91;5035926;28;1351;-77
2023/01/18 08:52:21;;;;;;;;;;;;;;;20.96;29.70;96882.03;5036005;28;1935;-78
2023/01/18 08:54:46;;;;;;;;;;;;;;;21.35;28.90;96870.34;5037073;28;1366;-78
2023/01/18 08:57:11;;;;;;;;;;;;;;;21.43;28.91;96854.63;5036277;28;1352;-77
2023/01/18 08:59:37;;;;;;;;;;;;;;;21.39;29.12;96859.66;5036228;28;1484;-77
2023/01/18 09:02:02;;;;;;;;;;;;;;;21.09;29.72;96853.66;5037679;28;1146;-79
2023/01/18 09:04:32;;;;;;;;;;;;;;;21.05;29.53;96848.13;5034544;28;998;-79
2023/01/18 09:06:58;;;;;;;;;;;;;;;21.01;29.78;96841.03;5079228;28;983;-78
2023/01/18 09:09:23;;;;;;;;;;;;;;;21.37;29.22;96845.19;5077941;28;1154;-79
2023/01/18 09:11:49;;;;;;;;;;;;;;;21.28;29.27;96832.56;5078742;28;1905;-80
2023/01/18 09:14:15;;;;;;;;;;;;;;;21.50;29.10;96854.31;5078044;28;1469;-77
2023/01/18 09:16:40;;;;;;;;;;;;;;;21.23;29.25;96857.88;5060930;28;1253;-79
2023/01/18 09:19:06;;;;;;;;;;;;;;;21.25;29.34;96850.50;5078153;28;1570;-78
2023/01/18 09:21:31;;;;;;;;;;;;;;;21.26;29.37;96845.63;5078150;28;1513;-77
2023/01/18 09:23:58;;;;;;;;;;;;;;;21.30;29.53;96864.06;5077870;28;1681;-78
2023/01/18 09:26:23;;;;;;;;;;;;;;;21.58;28.75;96861.22;5077877;28;1311;-78
2023/01/18 09:28:52;;;;;;;;;;;;;;;21.38;29.01;96863.75;5077848;28;1445;-78
2023/01/18 09:31:18;;;;;;;;;;;;;;;21.32;29.44;96866.41;5079396;28;1914;-78
2023/01/18 09:33:44;;;;;;;;;;;;;;;21.43;29.07;96871.59;5078757;28;925;-76
2023/01/18 09:36:10;;;;;;;;;;;;;;;21.30;29.40;96863.28;5078997;28;949;-77
2023/01/18 09:38:36;;;;;;;;;;;;;;;21.39;29.26;96870.97;5076644;28;1073;-79
2023/01/18 09:41:02;;;;;;;;;;;;;;;21.31;29.69;96871.28;5077107;28;1025;-78
2023/01/18 09:43:30;;;;;;;;;;;;;;;21.35;29.51;96859.00;5076930;28;947;-77
2023/01/18 09:45:56;;;;;;;;;;;;;;;21.26;29.61;96866.22;5078051;28;1031;-77
2023/01/18 09:48:31;;;;;;;;;;;;;;;21.09;29.68;96859.31;5077797;28;960;-77
2023/01/18 09:50:58;;;;;;;;;;;;;;;21.25;29.49;96861.81;5059802;28;1047;-78
2023/01/18 09:53:23;;;;;;;;;;;;;;;21.37;29.54;96862.19;5077205;28;1969;-77
2023/01/18 09:56:01;;;;;;;;;;;;;;;21.38;29.56;96861.69;5077618;28;1470;-77
2023/01/18 09:58:34;;;;;;;;;;;;;;;21.35;29.29;96864.66;5075537;28;1497;-78
2023/01/18 10:01:10;;;;;;;;;;;;;;;21.19;29.74;96860.88;5077730;28;1658;-78
2023/01/18 10:03:55;;;;;;;;;;;;;;;21.05;29.79;96847.34;5076236;28;976;-78
2023/01/18 10:06:22;;;;;;;;;;;;;;;21.30;29.58;96864.06;5077937;28;871;-82
2023/01/18 10:08:47;;;;;;;;;;;;;;;21.57;29.14;96862.50;5077488;28;1244;-81
2023/01/18 10:11:21;;;;;;;;;;;;;;;21.54;29.07;96869.09;5079434;28;823;-77
2023/01/18 10:13:47;;;;;;;;;;;;;;;21.08;29.61;96874.66;5076740;28;874;-81
2023/01/18 10:16:15;;;;;;;;;;;;;;;21.28;29.19;96858.03;5077514;28;899;-79
2023/01/18 10:18:45;;;;;;;;;;;;;;;20.91;29.67;96850.78;5076963;28;1027;-78
2023/01/18 10:21:18;;;;;;;;;;;;;;;21.20;29.83;96856.78;5077021;28;893;-78
2023/01/18 10:23:52;;;;;;;;;;;;;;;21.42;29.41;96855.88;5078072;28;907;-78
2023/01/18 10:26:38;;;;;;;;;;;;;;;21.70;28.94;96857.44;5078132;28;829;-78
2023/01/18 10:29:11;;;;;;;;;;;;;;;21.39;29.00;96862.47;5076293;28;1727;-78
2023/01/18 10:31:44;;;;;;;;;;;;;;;21.28;29.27;96877.84;5078408;28;1913;-78
2023/01/18 10:34:17;;;;;;;;;;;;;;;21.15;29.52;96880.03;5078224;28;937;-78
2023/01/18 10:36:44;;;;;;;;;;;;;;;21.43;29.58;96889.38;5075691;28;957;-78
2023/01/18 10:39:29;;;;;;;;;;;;;;;21.53;29.03;96876.00;5058309;28;1540;-79
2023/01/18 10:41:59;;;;;;;;;;;;;;;21.18;29.72;96886.78;4977105;28;1074;-78
2023/01/18 10:44:24;;;;;;;;;;;;;;;21.06;30.01;96888.50;4960429;28;1036;-77
2023/01/18 10:46:53;;;;;;;;;;;;;;;21.24;29.50;96882.91;4976156;28;1028;-78
2023/01/18 10:49:35;;;;;;;;;;;;;;;21.28;29.60;96883.50;4960655;28;1071;-78
2023/01/18 10:52:15;;;;;;;;;;;;;;;21.45;29.20;96891.72;4975645;28;1906;-78
2023/01/18 10:54:40;;;;;;;;;;;;;;;21.45;29.33;96903.03;4958617;28;1405;-77
2023/01/18 10:57:13;;;;;;;;;;;;;;;21.65;28.96;96899.75;4957059;28;1579;-78
2023/01/18 10:59:38;;;;;;;;;;;;;;;21.30;29.51;96886.69;4960189;28;1461;-77
2023/01/18 11:02:04;;;;;;;;;;;;;;;21.23;29.48;96892.63;4975787;28;1526;-78
2023/01/18 11:04:30;;;;;;;;;;;;;;;21.03;30.02;96883.78;4975819;28;896;-78
2023/01/18 11:07:02;;;;;;;;;;;;;;;21.19;29.85;96908.97;4975436;28;1618;-77
2023/01/18 11:09:33;;;;;;;;;;;;;;;21.65;29.03;96911.84;4975589;28;1750;-78
2023/01/18 11:12:36;;;;;;;;;;;;;;;21.45;29.21;96897.38;4975462;28;1926;-78
2023/01/18 11:15:13;;;;;;;;;;;;;;;21.22;29.46;96907.25;4956414;29;951;-78
2023/01/18 11:17:41;;;;;;;;;;;;;;;21.16;29.64;96886.47;4972248;28;1040;-78
2023/01/18 11:20:17;;;;;;;;;;;;;;;21.25;29.44;96884.47;4974923;28;1079;-77
2023/01/18 11:22:54;;;;;;;;;;;;;;;21.22;29.69;96893.88;4975571;28;1112;-76
2023/01/18 11:25:20;;;;;;;;;;;;;;;21.30;29.66;96888.75;4975404;28;1041;-78
2023/01/18 11:27:48;;;;;;;;;;;;;;;21.55;29.02;96893.28;4975792;28;921;-78
2023/01/18 11:30:31;;;;;;;;;;;;;;;21.24;29.47;96882.91;4975179;28;1004;-78
2023/01/18 11:32:58;;;;;;;;;;;;;;;21.13;29.66;96893.84;4975399;28;1914;-77
2023/01/18 11:35:27;;;;;;;;;;;;;;;21.04;29.89;96880.50;4975583;28;1040;-77
2023/01/18 11:37:53;;;;;;;;;;;;;;;21.38;29.66;96880.72;4974636;28;988;-78
2023/01/18 11:40:19;;;;;;;;;;;;;;;21.39;29.34;96854.00;4975524;28;1090;-80
2023/01/18 11:42:44;;;;;;;;;;;;;;;21.57;29.14;96877.44;4977680;28;1134;-78
2023/01/18 11:45:13;;;;;;;;;;;;;;;21.13;29.98;96848.59;5014027;28;1071;-79
2023/01/18 11:47:44;;;;;;;;;;;;;;;21.07;30.14;96856.91;4997848;28;1221;-78
2023/01/18 11:50:28;;;;;;;;;;;;;;;20.96;30.04;96839.63;5028738;28;918;-79
2023/01/18 11:53:06;;;;;;;;;;;;;;;21.40;29.55;96832.91;5056211;28;1993;-78
2023/01/18 11:55:54;;;;;;;;;;;;;;;21.32;29.62;96827.59;5071478;28;1002;-78
2023/01/18 11:58:27;;;;;;;;;;;;;;;21.07;30.07;96833.50;5058919;28;1522;-78
2023/01/18 12:00:55;;;;;;;;;;;;;;;21.06;29.99;96823.47;5075957;28;981;-79
2023/01/18 12:03:27;;;;;;;;;;;;;;;21.09;30.13;96833.84;5075922;28;1211;-79
2023/01/18 12:06:08;;;;;;;;;;;;;;;21.54;29.52;96832.28;5058772;28;1435;-79
2023/01/18 12:08:43;;;;;;;;;;;;;;;21.57;29.42;96851.16;5073572;28;1479;-77
2023/01/18 12:11:27;;;;;;;;;;;;;;;21.22;29.94;96859.16;5075544;28;1477;-79
2023/01/18 12:14:02;;;;;;;;;;;;;;;21.23;30.03;96863.53;5075156;28;1560;-78
2023/01/18 12:16:27;;;;;;;;;;;;;;;21.18;30.02;96873.44;5073629;28;1500;-79
2023/01/18 12:18:54;;;;;;;;;;;;;;;21.23;30.09;96886.16;5074859;28;1504;-79
2023/01/18 12:21:46;;;;;;;;;;;;;;;21.68;29.14;96888.28;5076728;28;1518;-78
2023/01/18 12:24:27;;;;;;;;;;;;;;;21.41;29.49;96897.56;5072902;28;1531;-78
2023/01/18 12:26:52;;;;;;;;;;;;;;;21.18;29.85;96901.72;5072666;28;1678;-77
2023/01/18 12:29:23;;;;;;;;;;;;;;;21.21;29.88;96906.44;5073949;28;1812;-78
2023/01/18 12:31:56;;;;;;;;;;;;;;;21.28;29.81;96906.13;5074179;28;1988;-77
2023/01/18 12:34:40;;;;;;;;;;;;;;;21.46;29.64;96902.59;5068093;28;1466;-77
2023/01/18 12:37:06;;;;;;;;;;;;;;;21.39;29.43;96904.94;5067396;28;1521;-77
2023/01/18 12:39:51;;;;;;;;;;;;;;;21.23;29.79;96915.25;5073143;28;1555;-77
2023/01/18 12:42:37;;;;;;;;;;;;;;;21.10;29.79;96911.78;5072492;28;1336;-78
2023/01/18 12:45:09;;;;;;;;;;;;;;;21.06;30.14;96919.63;5031347;28;1650;-77
2023/01/18 12:47:36;;;;;;;;;;;;;;;21.17;29.92;96917.13;5016320;28;1487;-78
2023/01/18 12:50:25;;;;;;;;;;;;;;;21.26;29.66;96919.97;4997079;28;1614;-76
2023/01/18 12:52:52;;;;;;;;;;;;;;;21.64;29.26;96915.16;5027316;28;1910;-75
2023/01/18 12:55:19;;;;;;;;;;;;;;;21.20;29.51;96933.16;5030979;28;1484;-77
2023/01/18 12:57:46;;;;;;;;;;;;;;;21.25;29.69;96924.06;5016407;28;1411;-78
2023/01/18 13:00:18;;;;;;;;;;;;;;;21.28;29.36;96934.44;5032088;28;1399;-77
2023/01/18 13:02:46;;;;;;;;;;;;;;;21.50;29.44;96927.88;5016102;28;1285;-77
2023/01/18 13:05:16;;;;;;;;;;;;;;;21.29;29.58;96936.00;5033016;28;1005;-78
2023/01/18 13:07:42;;;;;;;;;;;;;;;21.54;29.14;96928.53;5032832;28;1113;-77
2023/01/18 13:10:12;;;;;;;;;;;;;;;21.08;30.02;96925.59;5032814;28;975;-77
2023/01/18 13:12:38;;;;;;;;;;;;;;;21.07;30.21;96916.31;5032895;28;1898;-77
2023/01/18 13:15:14;;;;;;;;;;;;;;;21.07;30.07;96924.00;5032540;28;935;-77
2023/01/18 13:17:41;;;;;;;;;;;;;;;21.40;29.48;96912.16;5033006;28;1312;-77
2023/01/18 13:20:21;;;;;;;;;;;;;;;21.44;29.34;96915.63;5012685;28;1499;-77
2023/01/18 13:22:53;;;;;;;;;;;;;;;21.51;29.50;96912.50;5044177;28;954;-77
2023/01/18 13:25:25;;;;;;;;;;;;;;;21.24;29.67;96916.84;5070769;28;969;-77
2023/01/18 13:28:00;;;;;;;;;;;;;;;21.20;29.70;96921.84;5055303;28;865;-77
2023/01/18 13:30:26;;;;;;;;;;;;;;;21.14;29.73;96923.72;5076742;28;1521;-77
2023/01/18 13:32:52;;;;;;;;;;;;;;;21.08;30.07;96925.59;5075769;28;1902;-76
2023/01/18 13:35:31;;;;;;;;;;;;;;;21.67;29.03;96942.53;5075466;28;1462;-77
2023/01/18 13:38:12;;;;;;;;;;;;;;;21.44;29.66;96924.09;5077828;28;1048;-77
2023/01/18 13:40:41;;;;;;;;;;;;;;;21.18;29.64;96941.31;5078938;28;960;-78
2023/01/18 13:43:25;;;;;;;;;;;;;;;21.17;30.00;96934.09;5077413;28;991;-77